createdAt,value
2022-08-14T04:04:02.499Z,100997.56
2022-08-14T04:09:07.717Z,100999.53
2022-08-14T04:14:15.187Z,100985.53
2022-08-14T04:19:20.564Z,100986.28
2022-08-14T04:24:23.746Z,100987.34
2022-08-14T04:29:28.465Z,100986.56
2022-08-14T04:34:41.840Z,100981.56
2022-08-14T04:40:03.360Z,100979.09
2022-08-14T04:45:06.303Z,100978.53
2022-08-14T04:50:08.867Z,100974.13
2022-08-14T04:55:11.296Z,100973.28
2022-08-14T05:00:16.267Z,100968.38
2022-08-14T05:05:21.028Z,100968.53
2022-08-14T05:10:32.311Z,100965.97
2022-08-14T05:15:36.535Z,100976.63
2022-08-14T05:21:59.334Z,100964.69
2022-08-14T05:26:14.877Z,100967.47
2022-08-14T05:31:20.518Z,100965.41
2022-08-14T05:36:23.840Z,100969.16
2022-08-14T05:41:27.732Z,100957.38
2022-08-14T05:46:49.151Z,100940.31
2022-08-14T05:51:52.049Z,100941.22
2022-08-14T05:56:55.153Z,100933.38
2022-08-14T06:01:57.589Z,100930.22
2022-08-14T06:07:00.484Z,100933.25
2022-08-14T06:12:04.477Z,100932.72
2022-08-14T06:17:07.752Z,100925.91
2022-08-14T06:22:10.203Z,100913.97
2022-08-14T06:27:15.181Z,100914.25
2022-08-14T06:32:38.519Z,100916.09
2022-08-14T06:37:45.156Z,100923.19
2022-08-14T06:42:50.002Z,100920.94
2022-08-14T06:47:53.724Z,100919.38
2022-08-14T06:52:56.177Z,100924.00
2022-08-14T06:57:58.473Z,100924.19
2022-08-14T07:03:21.777Z,100913.88
2022-08-14T07:08:31.134Z,100916.72
2022-08-14T07:13:34.001Z,100912.50
2022-08-14T07:18:37.319Z,100917.00
2022-08-14T07:23:44.102Z,100906.63
2022-08-14T07:28:46.748Z,100906.69
2022-08-14T07:33:51.078Z,100897.81
2022-08-14T07:38:54.563Z,100892.38
2022-08-14T07:44:00.857Z,100890.22
2022-08-14T07:49:24.227Z,100895.94
2022-08-14T07:54:30.228Z,100887.28
2022-08-14T07:59:41.205Z,100883.91
2022-08-14T08:04:47.023Z,100883.03
2022-08-14T08:09:56.039Z,100888.69
2022-08-14T08:15:03.023Z,100891.59
2022-08-14T08:20:12.795Z,100887.72
2022-08-14T08:25:17.965Z,100896.56
2022-08-14T08:30:21.512Z,100912.84
2022-08-14T08:35:46.278Z,100927.53
2022-08-14T08:40:50.590Z,100912.06
2022-08-14T08:46:06.988Z,100873.91
2022-08-14T08:51:31.226Z,100853.50
2022-08-14T08:56:41.327Z,100845.56
2022-08-14T09:01:56.176Z,100845.19
2022-08-14T09:07:10.000Z,100837.81
2022-08-14T09:12:15.179Z,100826.50
2022-08-14T09:17:17.650Z,100821.31
2022-08-14T09:22:35.681Z,100810.53
2022-08-14T09:27:39.729Z,100817.75
2022-08-14T09:33:11.776Z,100807.25
2022-08-14T09:38:42.883Z,100801.41
2022-08-14T09:43:48.946Z,100785.31
2022-08-14T09:49:29.693Z,100792.41
2022-08-14T09:54:38.696Z,100785.31
2022-08-14T09:59:46.466Z,100780.69
2022-08-14T10:05:28.753Z,100770.78
2022-08-14T10:10:41.619Z,100768.19
2022-08-14T10:15:46.028Z,100756.44
2022-08-14T10:20:57.853Z,100748.03
2022-08-14T10:26:06.092Z,100742.38
2022-08-14T10:31:29.590Z,100738.69
2022-08-14T10:36:47.531Z,100730.03
2022-08-14T10:42:04.495Z,100730.38
2022-08-14T10:47:40.604Z,100723.59
2022-08-14T10:52:43.431Z,100721.84
2022-08-14T10:57:52.593Z,100710.47
2022-08-14T11:03:01.752Z,100698.34
2022-08-14T11:08:09.165Z,100696.63
2022-08-14T11:13:23.772Z,100681.28
2022-08-14T11:18:32.007Z,100677.09
2022-08-14T11:23:41.164Z,100676.34
2022-08-14T11:28:50.229Z,100664.28
2022-08-14T11:33:59.356Z,100664.78
2022-08-14T11:39:01.885Z,100645.47
2022-08-14T11:44:13.060Z,100633.34
2022-08-14T11:49:34.089Z,100638.41
2022-08-14T11:54:37.542Z,100635.72
2022-08-14T11:59:44.274Z,100623.47
2022-08-14T12:04:52.273Z,100622.25
2022-08-14T12:09:56.811Z,100622.25
2022-08-14T12:15:00.500Z,100619.44
2022-08-14T12:20:06.431Z,100610.53
2022-08-14T12:25:14.671Z,100599.28
2022-08-14T12:30:35.954Z,100597.78
2022-08-14T12:35:44.887Z,100585.47
2022-08-14T12:40:56.103Z,100581.22
2022-08-14T12:45:58.690Z,100566.53
2022-08-14T12:51:01.008Z,100554.19
2022-08-14T12:56:22.485Z,100542.16
2022-08-14T13:01:56.579Z,100550.50
2022-08-14T13:06:54.076Z,100547.66
2022-08-14T13:11:58.475Z,100526.25
2022-08-14T13:17:20.755Z,100526.75
2022-08-14T13:22:33.466Z,100512.28
2022-08-14T13:27:39.399Z,100499.19
2022-08-14T13:32:45.215Z,100493.78
2022-08-14T13:37:49.903Z,100481.22
2022-08-14T13:42:57.232Z,100483.78
2022-08-14T13:47:59.760Z,100476.22
2022-08-14T13:53:03.775Z,100473.19
2022-08-14T13:58:06.884Z,100454.59
2022-08-14T14:03:34.976Z,100448.69
2022-08-14T14:08:53.710Z,100447.88
2022-08-14T14:13:58.545Z,100428.59
2022-08-14T14:19:08.742Z,100422.63
2022-08-14T14:24:15.386Z,100415.75
2022-08-14T14:29:26.046Z,100402.00
2022-08-14T14:34:33.310Z,100405.53
2022-08-14T14:39:37.932Z,100405.81
2022-08-14T14:45:05.056Z,100393.38
2022-08-14T14:50:11.264Z,100389.66
2022-08-14T14:55:16.843Z,100386.47
2022-08-14T15:00:20.171Z,100380.28
2022-08-14T15:05:23.249Z,100379.94
2022-08-14T15:10:34.314Z,100379.81
2022-08-14T15:15:37.895Z,100369.00
2022-08-14T15:20:42.051Z,100371.31
2022-08-14T15:25:53.107Z,100365.88
2022-08-14T15:30:58.987Z,100359.69
2022-08-14T15:36:03.031Z,100370.91
2022-08-14T15:41:08.596Z,100361.19
2022-08-14T15:46:41.350Z,100359.44
2022-08-14T15:51:36.745Z,100348.13
2022-08-14T15:56:45.427Z,100347.25
2022-08-14T16:01:54.689Z,100333.47
2022-08-14T16:06:57.514Z,100323.56
2022-08-14T16:11:59.892Z,100327.06
2022-08-14T16:17:04.424Z,100319.56
2022-08-14T16:22:58.380Z,100313.06
2022-08-14T16:27:40.771Z,100307.28
2022-08-14T16:32:54.970Z,100306.56
2022-08-14T16:38:00.369Z,100300.03
2022-08-14T16:43:26.023Z,100298.72
2022-08-14T16:48:55.635Z,100289.25
2022-08-14T16:53:54.621Z,100297.25
2022-08-14T16:59:12.115Z,100288.16
2022-08-14T17:04:24.759Z,100283.31
2022-08-14T17:10:09.361Z,100291.88
2022-08-14T17:15:14.918Z,100282.19
2022-08-14T17:20:51.524Z,100277.50
2022-08-14T17:25:49.446Z,100280.84
2022-08-14T17:30:56.838Z,100272.41
2022-08-14T17:36:21.020Z,100276.34
2022-08-14T17:41:26.981Z,100280.38
2022-08-14T17:46:49.973Z,100290.69
2022-08-14T17:52:17.231Z,100297.78
2022-08-14T17:57:24.395Z,100292.41
2022-08-14T18:02:31.928Z,100298.44
2022-08-14T18:07:59.924Z,100299.63
2022-08-14T18:12:59.133Z,100314.97
2022-08-14T18:18:09.137Z,100317.97
2022-08-14T18:23:12.880Z,100319.97
2022-08-14T18:28:51.761Z,100309.84
2022-08-14T18:33:51.949Z,100326.19
2022-08-14T18:39:29.756Z,100325.66
2022-08-14T18:44:50.607Z,100326.03
2022-08-14T18:49:52.925Z,100327.16
2022-08-14T18:54:59.661Z,100333.53
2022-08-14T19:00:33.835Z,100332.06
2022-08-14T19:05:47.311Z,100327.00
2022-08-14T19:10:59.368Z,100331.63
2022-08-14T19:16:23.351Z,100339.66
2022-08-14T19:21:34.323Z,100332.78
2022-08-14T19:26:54.189Z,100353.97
2022-08-14T19:31:59.725Z,100346.22
2022-08-14T19:37:06.044Z,100349.13
2022-08-14T19:42:14.885Z,100345.00
2022-08-14T19:47:41.087Z,100340.69
2022-08-14T19:52:45.907Z,100332.13
2022-08-14T19:57:58.335Z,100331.50
2022-08-14T20:03:14.258Z,100321.16
2022-08-14T20:10:59.135Z,100319.66
2022-08-14T20:13:45.209Z,100331.19
2022-08-14T20:18:50.234Z,100333.81
2022-08-14T20:24:31.255Z,100341.69
2022-08-14T20:29:39.039Z,100347.91
2022-08-14T20:34:51.426Z,100342.69
2022-08-14T20:39:55.619Z,100334.06
2022-08-14T20:45:18.911Z,100321.97
2022-08-14T20:50:28.658Z,100317.69
2022-08-14T20:55:37.283Z,100328.34
2022-08-14T21:00:51.869Z,100331.94
2022-08-14T21:05:58.899Z,100326.84
2022-08-14T21:11:02.285Z,100326.03
2022-08-14T21:16:33.420Z,100334.84
2022-08-14T21:21:41.547Z,100334.03
2022-08-14T21:26:52.652Z,100336.69
2022-08-14T21:32:20.505Z,100332.38
2022-08-14T21:37:23.672Z,100327.16
2022-08-14T21:42:27.960Z,100328.94
2022-08-14T21:47:30.452Z,100316.72
2022-08-14T21:52:52.257Z,100313.28
2022-08-14T21:58:51.280Z,100315.06
